Saratoga-Weather Station Historical Data
Daily Summary for November 09, 2018 Units:  Both    English   Metric
Daily Weekly Monthly Yearly Custom
  High: Low: Average:
Temperature: 57.2 °F /  14 °C 40.8 °F /  4.9 °C 52.4 °F /  11.3 °C
Dew Point: 44.1 °F /  6.7 °C 27.9 °F /  -2.3 °C 35.1 °F /  1.7 °C
Humidity: 66% 45% 52%
Wind Speed: 4.9mph /  7.9km/h - 0.1mph /  0.2km/h
Wind Gust: 8.0mph /  12.9km/h - -
Wind- - WNW
Pressure: 30.19 in /  1022.2 hPa 30.01 in /  1016.1 hPa -
Precipitation: 0.66 in /  16.76 mm    
Historical Graphs
 
 
Tabular Data for November 09, 2018
Time Temperature Dew Point Pressure Wind Wind Speed Wind Gust Humidity Rainfall Rate (Hourly) solar
00:03 55.2 °F /  12.9 °C 44.1 °F /  6.7 °C 30.13in /  1020.2hPa Calm     66% 0.00in /  0mm meteobridge W/m2
00:09 55.2 °F /  12.9 °C 44.1 °F /  6.7 °C 30.13in /  1020.2hPa Calm     66% 0.00in /  0mm meteobridge W/m2
00:14 55.2 °F /  12.9 °C 43.7 °F /  6.5 °C 30.13in /  1020.2hPa Calm     65% 0.00in /  0mm meteobridge W/m2
00:18 55.4 °F /  13 °C 43.9 °F /  6.6 °C 30.13in /  1020.2hPa Calm     65% 0.00in /  0mm meteobridge W/m2
00:24 55.2 °F /  12.9 °C 43.3 °F /  6.3 °C 30.13in /  1020.2hPa Calm     64% 0.00in /  0mm meteobridge W/m2
00:29 55.2 °F /  12.9 °C 43.3 °F /  6.3 °C 30.13in /  1020.2hPa Calm     64% 0.00in /  0mm meteobridge W/m2
00:30 55.2 °F /  12.9 °C 42.8 °F /  6 °C 30.13in /  1020.2hPa Calm     63% 0.00in /  0mm meteobridge W/m2
00:38 55.2 °F /  12.9 °C 42.8 °F /  6 °C 30.13in /  1020.2hPa Calm     63% 0.00in /  0mm meteobridge W/m2
00:44 55.2 °F /  12.9 °C 42.4 °F /  5.8 °C 30.12in /  1019.9hPa Calm     62% 0.00in /  0mm meteobridge W/m2
00:49 55.2 °F /  12.9 °C 42.4 °F /  5.8 °C 30.12in /  1019.9hPa Calm     62% 0.00in /  0mm meteobridge W/m2
00:54 55.2 °F /  12.9 °C 42.4 °F /  5.8 °C 30.12in /  1019.9hPa Calm     62% 0.00in /  0mm meteobridge W/m2
00:58 55.4 °F /  13 °C 42.6 °F /  5.9 °C 30.11in /  1019.5hPa Calm     62% 0.00in /  0mm meteobridge W/m2
01:03 55.4 °F /  13 °C 42.6 °F /  5.9 °C 30.11in /  1019.5hPa Calm     62% 0.00in /  0mm meteobridge W/m2
01:09 55.4 °F /  13 °C 43.0 °F /  6.1 °C 30.11in /  1019.5hPa Calm     63% 0.00in /  0mm meteobridge W/m2
01:14 55.6 °F /  13.1 °C 43.2 °F /  6.2 °C 30.11in /  1019.5hPa Calm     63% 0.00in /  0mm meteobridge W/m2
01:19 55.6 °F /  13.1 °C 43.2 °F /  6.2 °C 30.11in /  1019.5hPa Calm     63% 0.00in /  0mm meteobridge W/m2
01:24 55.6 °F /  13.1 °C 43.2 °F /  6.2 °C 30.11in /  1019.5hPa Calm     63% 0.00in /  0mm meteobridge W/m2
01:28 55.6 °F /  13.1 °C 43.2 °F /  6.2 °C 30.11in /  1019.5hPa Calm     63% 0.00in /  0mm meteobridge W/m2
01:33 55.6 °F /  13.1 °C 43.2 °F /  6.2 °C 30.11in /  1019.5hPa Calm     63% 0.00in /  0mm meteobridge W/m2
01:38 55.8 °F /  13.2 °C 43.3 °F /  6.3 °C 30.10in /  1019.2hPa Calm     63% 0.00in /  0mm meteobridge W/m2
01:44 55.9 °F /  13.3 °C 43.5 °F /  6.4 °C 30.11in /  1019.5hPa Calm     63% 0.00in /  0mm meteobridge W/m2
01:49 55.9 °F /  13.3 °C 43.2 °F /  6.2 °C 30.11in /  1019.5hPa Calm     62% 0.00in /  0mm meteobridge W/m2
01:53 56.1 °F /  13.4 °C 43.3 °F /  6.3 °C 30.11in /  1019.5hPa Calm     62% 0.00in /  0mm meteobridge W/m2
01:59 56.1 °F /  13.4 °C 43.3 °F /  6.3 °C 30.10in /  1019.2hPa Calm     62% 0.00in /  0mm meteobridge W/m2
02:04 56.5 °F /  13.6 °C 43.7 °F /  6.5 °C 30.10in /  1019.2hPa Calm     62% 0.00in /  0mm meteobridge W/m2
02:09 56.5 °F /  13.6 °C 43.7 °F /  6.5 °C 30.10in /  1019.2hPa Calm     62% 0.00in /  0mm meteobridge W/m2
02:14 56.7 °F /  13.7 °C 43.7 °F /  6.5 °C 30.09in /  1018.8hPa Calm     62% 0.00in /  0mm meteobridge W/m2
02:19 56.7 °F /  13.7 °C 43.7 °F /  6.5 °C 30.09in /  1018.8hPa Calm     62% 0.00in /  0mm meteobridge W/m2
02:24 56.8 °F /  13.8 °C 43.5 °F /  6.4 °C 30.09in /  1018.8hPa Calm     61% 0.00in /  0mm meteobridge W/m2
02:29 56.8 °F /  13.8 °C 43.5 °F /  6.4 °C 30.09in /  1018.8hPa Calm     61% 0.00in /  0mm meteobridge W/m2
02:34 56.8 °F /  13.8 °C 43.5 °F /  6.4 °C 30.09in /  1018.8hPa Calm     61% 0.00in /  0mm meteobridge W/m2
02:39 56.8 °F /  13.8 °C 43.5 °F /  6.4 °C 30.09in /  1018.8hPa Calm     61% 0.00in /  0mm meteobridge W/m2
02:44 57.0 °F /  13.9 °C 43.7 °F /  6.5 °C 30.09in /  1018.8hPa Calm     61% 0.00in /  0mm meteobridge W/m2
02:49 57.0 °F /  13.9 °C 43.7 °F /  6.5 °C 30.09in /  1018.8hPa Calm     61% 0.00in /  0mm meteobridge W/m2
02:54 57.0 °F /  13.9 °C 43.7 °F /  6.5 °C 30.09in /  1018.8hPa Calm     61% 0.00in /  0mm meteobridge W/m2
02:59 57.0 °F /  13.9 °C 43.7 °F /  6.5 °C 30.09in /  1018.8hPa Calm     61% 0.00in /  0mm meteobridge W/m2
03:04 57.0 °F /  13.9 °C 43.7 °F /  6.5 °C 30.09in /  1018.8hPa Calm     61% 0.00in /  0mm meteobridge W/m2
03:09 57.2 °F /  14 °C 43.5 °F /  6.4 °C 30.09in /  1018.8hPa Calm     60% 0.00in /  0mm meteobridge W/m2
03:14 57.0 °F /  13.9 °C 42.8 °F /  6 °C 30.09in /  1018.8hPa Calm     59% 0.00in /  0mm meteobridge W/m2
03:19 57.0 °F /  13.9 °C 42.8 °F /  6 °C 30.09in /  1018.8hPa Calm     59% 0.00in /  0mm meteobridge W/m2
03:23 57.0 °F /  13.9 °C 42.4 °F /  5.8 °C 30.09in /  1018.8hPa Calm     58% 0.00in /  0mm meteobridge W/m2
03:29 56.8 °F /  13.8 °C 42.3 °F /  5.7 °C 30.09in /  1018.8hPa Calm     58% 0.00in /  0mm meteobridge W/m2
03:34 56.8 °F /  13.8 °C 42.3 °F /  5.7 °C 30.08in /  1018.5hPa Calm     58% 0.00in /  0mm meteobridge W/m2
03:39 56.8 °F /  13.8 °C 42.3 °F /  5.7 °C 30.08in /  1018.5hPa Calm     58% 0.00in /  0mm meteobridge W/m2
03:43 56.8 °F /  13.8 °C 42.6 °F /  5.9 °C 30.08in /  1018.5hPa Calm     59% 0.00in /  0mm meteobridge W/m2
03:48 56.8 °F /  13.8 °C 43.2 °F /  6.2 °C 30.08in /  1018.5hPa Calm     60% 0.00in /  0mm meteobridge W/m2
03:54 56.8 °F /  13.8 °C 43.2 °F /  6.2 °C 30.08in /  1018.5hPa Calm     60% 0.00in /  0mm meteobridge W/m2
03:58 56.8 °F /  13.8 °C 43.5 °F /  6.4 °C 30.08in /  1018.5hPa Calm     61% 0.00in /  0mm meteobridge W/m2
04:02 56.8 °F /  13.8 °C 43.5 °F /  6.4 °C 30.08in /  1018.5hPa Calm     61% 0.00in /  0mm meteobridge W/m2
04:09 57.0 °F /  13.9 °C 43.7 °F /  6.5 °C 30.08in /  1018.5hPa Calm     61% 0.00in /  0mm meteobridge W/m2
04:13 56.8 °F /  13.8 °C 43.9 °F /  6.6 °C 30.07in /  1018.2hPa Calm     62% 0.00in /  0mm meteobridge W/m2
04:18 56.8 °F /  13.8 °C 43.5 °F /  6.4 °C 30.07in /  1018.2hPa Calm     61% 0.00in /  0mm meteobridge W/m2
04:24 56.7 °F /  13.7 °C 43.3 °F /  6.3 °C 30.07in /  1018.2hPa Calm     61% 0.00in /  0mm meteobridge W/m2
04:29 56.7 °F /  13.7 °C 43.3 °F /  6.3 °C 30.07in /  1018.2hPa Calm     61% 0.00in /  0mm meteobridge W/m2
04:33 56.7 °F /  13.7 °C 43.3 °F /  6.3 °C 30.06in /  1017.8hPa Calm     61% 0.00in /  0mm meteobridge W/m2
04:38 56.7 °F /  13.7 °C 43.3 °F /  6.3 °C 30.07in /  1018.2hPa Calm     61% 0.00in /  0mm meteobridge W/m2
04:44 56.5 °F /  13.6 °C 42.3 °F /  5.7 °C 30.06in /  1017.8hPa Calm     59% 0.03in /  0.76mm meteobridge W/m2
04:47 56.1 °F /  13.4 °C 41.5 °F /  5.3 °C 30.06in /  1017.8hPa Calm     58% 0.04in /  1.02mm meteobridge W/m2
04:54 55.8 °F /  13.2 °C 40.3 °F /  4.6 °C 30.06in /  1017.8hPa Calm     56% 0.04in /  1.02mm meteobridge W/m2
04:59 55.8 °F /  13.2 °C 39.9 °F /  4.4 °C 30.06in /  1017.8hPa Calm     55% 0.04in /  1.02mm meteobridge W/m2
05:02 55.6 °F /  13.1 °C 39.2 °F /  4 °C 30.06in /  1017.8hPa Calm     54% 0.04in /  1.02mm meteobridge W/m2
05:09 55.4 °F /  13 °C 38.5 °F /  3.6 °C 30.06in /  1017.8hPa Calm     53% 0.04in /  1.02mm meteobridge W/m2
05:13 55.2 °F /  12.9 °C 38.3 °F /  3.5 °C 30.06in /  1017.8hPa Calm     53% 0.05in /  1.27mm meteobridge W/m2
05:18 55.2 °F /  12.9 °C 38.3 °F /  3.5 °C 30.06in /  1017.8hPa Calm     53% 0.06in /  1.52mm meteobridge W/m2
05:24 55.0 °F /  12.8 °C 37.8 °F /  3.2 °C 30.06in /  1017.8hPa Calm     52% 0.07in /  1.78mm meteobridge W/m2
05:29 55.0 °F /  12.8 °C 37.8 °F /  3.2 °C 30.06in /  1017.8hPa Calm     52% 0.08in /  2.03mm meteobridge W/m2
05:34 55.0 °F /  12.8 °C 37.2 °F /  2.9 °C 30.06in /  1017.8hPa Calm     51% 0.08in /  2.03mm meteobridge W/m2
05:37 54.9 °F /  12.7 °C 37.0 °F /  2.8 °C 30.06in /  1017.8hPa Calm     51% 0.08in /  2.03mm meteobridge W/m2
05:48 54.9 °F /  12.7 °C 36.5 °F /  2.5 °C 30.06in /  1017.8hPa Calm     50% 0.05in /  1.27mm meteobridge W/m2
05:54 54.7 °F /  12.6 °C 36.3 °F /  2.4 °C 30.05in /  1017.5hPa Calm     50% 0.07in /  1.78mm meteobridge W/m2
05:59 54.7 °F /  12.6 °C 36.3 °F /  2.4 °C 30.04in /  1017.2hPa Calm     50% 0.07in /  1.78mm meteobridge W/m2
06:04 54.5 °F /  12.5 °C 36.3 °F /  2.4 °C 30.04in /  1017.2hPa Calm     50% 0.07in /  1.78mm meteobridge W/m2
06:08 54.3 °F /  12.4 °C 36.1 °F /  2.3 °C 30.04in /  1017.2hPa Calm     50% 0.08in /  2.03mm meteobridge W/m2
06:12 54.3 °F /  12.4 °C 36.1 °F /  2.3 °C 30.04in /  1017.2hPa Calm     50% 0.08in /  2.03mm meteobridge W/m2
06:19 54.3 °F /  12.4 °C 36.1 °F /  2.3 °C 30.05in /  1017.5hPa Calm     50% 0.07in /  1.78mm meteobridge W/m2
06:24 54.1 °F /  12.3 °C 36.0 °F /  2.2 °C 30.04in /  1017.2hPa Calm     50% 0.12in /  3.05mm meteobridge W/m2
06:27 54.1 °F /  12.3 °C 35.4 °F /  1.9 °C 30.04in /  1017.2hPa Calm     49% 0.13in /  3.3mm meteobridge W/m2
06:33 54.1 °F /  12.3 °C 35.4 °F /  1.9 °C 30.04in /  1017.2hPa Calm     49% 0.12in /  3.05mm meteobridge W/m2
06:39 54.1 °F /  12.3 °C 35.4 °F /  1.9 °C 30.04in /  1017.2hPa Calm     49% 0.12in /  3.05mm meteobridge W/m2
06:44 54.1 °F /  12.3 °C 35.4 °F /  1.9 °C 30.03in /  1016.8hPa Calm     49% 0.12in /  3.05mm meteobridge W/m2
06:48 54.1 °F /  12.3 °C 35.4 °F /  1.9 °C 30.03in /  1016.8hPa Calm     49% 0.11in /  2.79mm meteobridge W/m2
06:53 54.3 °F /  12.4 °C 35.1 °F /  1.7 °C 30.03in /  1016.8hPa Calm     48% 0.09in /  2.29mm meteobridge W/m2
07:04 54.3 °F /  12.4 °C 35.1 °F /  1.7 °C 30.04in /  1017.2hPa Calm     48% 0.09in /  2.29mm meteobridge W/m2
07:08 54.3 °F /  12.4 °C 35.1 °F /  1.7 °C 30.04in /  1017.2hPa Calm     48% 0.08in /  2.03mm meteobridge W/m2
07:14 54.3 °F /  12.4 °C 35.1 °F /  1.7 °C 30.04in /  1017.2hPa Calm     48% 0.09in /  2.29mm meteobridge W/m2
07:16 54.3 °F /  12.4 °C 35.1 °F /  1.7 °C 30.04in /  1017.2hPa Calm     48% 0.09in /  2.29mm meteobridge W/m2
07:24 54.1 °F /  12.3 °C 34.9 °F /  1.6 °C 30.04in /  1017.2hPa Calm     48% 0.02in /  0.51mm meteobridge W/m2
07:29 54.1 °F /  12.3 °C 34.9 °F /  1.6 °C 30.04in /  1017.2hPa Calm     48% 0.01in /  0.25mm meteobridge W/m2
07:34 54.1 °F /  12.3 °C 34.9 °F /  1.6 °C 30.04in /  1017.2hPa Calm     48% 0.01in /  0.25mm meteobridge W/m2
07:37 54.1 °F /  12.3 °C 34.9 °F /  1.6 °C 30.04in /  1017.2hPa Calm     48% 0.01in /  0.25mm meteobridge W/m2
07:42 54.1 °F /  12.3 °C 34.9 °F /  1.6 °C 30.04in /  1017.2hPa Calm     48% 0.01in /  0.25mm meteobridge W/m2
07:48 54.1 °F /  12.3 °C 34.9 °F /  1.6 °C 30.03in /  1016.8hPa Calm     48% 0.01in /  0.25mm meteobridge W/m2
07:54 54.1 °F /  12.3 °C 34.9 °F /  1.6 °C 30.04in /  1017.2hPa Calm     48% 0.01in /  0.25mm meteobridge W/m2
07:59 54.1 °F /  12.3 °C 34.9 °F /  1.6 °C 30.05in /  1017.5hPa Calm     48% 0.01in /  0.25mm meteobridge W/m2
08:04 54.1 °F /  12.3 °C 34.9 °F /  1.6 °C 30.05in /  1017.5hPa Calm     48% 0.01in /  0.25mm meteobridge W/m2
08:09 54.1 °F /  12.3 °C 34.9 °F /  1.6 °C 30.06in /  1017.8hPa Calm     48% 0.04in /  1.02mm meteobridge W/m2
08:14 54.1 °F /  12.3 °C 34.9 °F /  1.6 °C 30.06in /  1017.8hPa Calm     48% 0.05in /  1.27mm meteobridge W/m2
08:18 54.0 °F /  12.2 °C 34.7 °F /  1.5 °C 30.06in /  1017.8hPa Calm     48% 0.07in /  1.78mm meteobridge W/m2
08:23 54.0 °F /  12.2 °C 35.2 °F /  1.8 °C 30.06in /  1017.8hPa Calm     49% 0.08in /  2.03mm meteobridge W/m2
08:28 53.8 °F /  12.1 °C 34.5 °F /  1.4 °C 30.06in /  1017.8hPa Calm     48% 0.08in /  2.03mm meteobridge W/m2
08:34 53.8 °F /  12.1 °C 35.1 °F /  1.7 °C 30.07in /  1018.2hPa Calm     49% 0.08in /  2.03mm meteobridge W/m2
08:39 53.8 °F /  12.1 °C 34.5 °F /  1.4 °C 30.06in /  1017.8hPa Calm     48% 0.09in /  2.29mm meteobridge W/m2
08:44 53.8 °F /  12.1 °C 34.5 °F /  1.4 °C 30.06in /  1017.8hPa Calm     48% 0.09in /  2.29mm meteobridge W/m2
08:49 53.8 °F /  12.1 °C 34.5 °F /  1.4 °C 30.07in /  1018.2hPa Calm     48% 0.09in /  2.29mm meteobridge W/m2
08:53 53.8 °F /  12.1 °C 34.5 °F /  1.4 °C 30.06in /  1017.8hPa Calm     48% 0.09in /  2.29mm meteobridge W/m2
08:59 53.8 °F /  12.1 °C 34.5 °F /  1.4 °C 30.06in /  1017.8hPa Calm     48% 0.09in /  2.29mm meteobridge W/m2
09:04 53.8 °F /  12.1 °C 34.5 °F /  1.4 °C 30.06in /  1017.8hPa Calm     48% 0.09in /  2.29mm meteobridge W/m2
09:09 53.8 °F /  12.1 °C 34.5 °F /  1.4 °C 30.06in /  1017.8hPa Calm     48% 0.07in /  1.78mm meteobridge W/m2
09:14 53.8 °F /  12.1 °C 34.5 °F /  1.4 °C 30.05in /  1017.5hPa Calm     48% 0.04in /  1.02mm meteobridge W/m2
09:19 53.6 °F /  12 °C 34.3 °F /  1.3 °C 30.05in /  1017.5hPa Calm     48% 0.02in /  0.51mm meteobridge W/m2
09:23 53.6 °F /  12 °C 34.3 °F /  1.3 °C 30.05in /  1017.5hPa Calm     48% 0.03in /  0.76mm meteobridge W/m2
09:28 53.4 °F /  11.9 °C 34.2 °F /  1.2 °C 30.05in /  1017.5hPa Calm     48% 0.03in /  0.76mm meteobridge W/m2
09:34 53.4 °F /  11.9 °C 34.2 °F /  1.2 °C 30.05in /  1017.5hPa Calm     48% 0.03in /  0.76mm meteobridge W/m2
09:39 53.4 °F /  11.9 °C 34.2 °F /  1.2 °C 30.06in /  1017.8hPa Calm     48% 0.02in /  0.51mm meteobridge W/m2
09:44 53.4 °F /  11.9 °C 34.2 °F /  1.2 °C 30.07in /  1018.2hPa Calm     48% 0.07in /  1.78mm meteobridge W/m2
09:49 53.8 °F /  12.1 °C 34.5 °F /  1.4 °C 30.09in /  1018.8hPa Calm     48% 0.13in /  3.3mm meteobridge W/m2
09:53 54.0 °F /  12.2 °C 34.2 °F /  1.2 °C 30.08in /  1018.5hPa Calm     47% 0.17in /  4.32mm meteobridge W/m2
09:59 54.0 °F /  12.2 °C 34.2 °F /  1.2 °C 30.07in /  1018.2hPa Calm     47% 0.23in /  5.84mm meteobridge W/m2
10:04 54.0 °F /  12.2 °C 34.2 °F /  1.2 °C 30.08in /  1018.5hPa Calm     47% 0.27in /  6.86mm meteobridge W/m2
10:09 54.0 °F /  12.2 °C 34.2 °F /  1.2 °C 30.08in /  1018.5hPa Calm     47% 0.28in /  7.11mm meteobridge W/m2
10:13 53.8 °F /  12.1 °C 34.0 °F /  1.1 °C 30.08in /  1018.5hPa Calm     47% 0.28in /  7.11mm meteobridge W/m2
10:19 53.6 °F /  12 °C 33.8 °F /  1 °C 30.08in /  1018.5hPa Calm     47% 0.30in /  7.62mm meteobridge W/m2
10:23 53.6 °F /  12 °C 33.8 °F /  1 °C 30.08in /  1018.5hPa Calm     47% 0.29in /  7.37mm meteobridge W/m2
10:29 53.6 °F /  12 °C 33.8 °F /  1 °C 30.09in /  1018.8hPa Calm     47% 0.28in /  7.11mm meteobridge W/m2
10:34 53.6 °F /  12 °C 33.8 °F /  1 °C 30.09in /  1018.8hPa Calm     47% 0.28in /  7.11mm meteobridge W/m2
10:39 53.8 °F /  12.1 °C 34.0 °F /  1.1 °C 30.08in /  1018.5hPa Calm     47% 0.28in /  7.11mm meteobridge W/m2
10:43 53.8 °F /  12.1 °C 34.0 °F /  1.1 °C 30.08in /  1018.5hPa Calm     47% 0.26in /  6.6mm meteobridge W/m2
10:49 54.0 °F /  12.2 °C 34.2 °F /  1.2 °C 30.07in /  1018.2hPa Calm     47% 0.18in /  4.57mm meteobridge W/m2
10:54 54.1 °F /  12.3 °C 34.3 °F /  1.3 °C 30.08in /  1018.5hPa Calm     47% 0.14in /  3.56mm meteobridge W/m2
10:59 54.1 °F /  12.3 °C 34.3 °F /  1.3 °C 30.07in /  1018.2hPa Calm     47% 0.08in /  2.03mm meteobridge W/m2
11:04 54.3 °F /  12.4 °C 34.0 °F /  1.1 °C 30.07in /  1018.2hPa Calm     46% 0.04in /  1.02mm meteobridge W/m2
11:09 54.1 °F /  12.3 °C 33.8 °F /  1 °C 30.07in /  1018.2hPa Calm     46% 0.03in /  0.76mm meteobridge W/m2
11:13 54.3 °F /  12.4 °C 34.0 °F /  1.1 °C 30.07in /  1018.2hPa Calm     46% 0.02in /  0.51mm meteobridge W/m2
11:17 54.3 °F /  12.4 °C 34.0 °F /  1.1 °C 30.06in /  1017.8hPa Calm     46% 0.02in /  0.51mm meteobridge W/m2
11:24 54.3 °F /  12.4 °C 34.0 °F /  1.1 °C 30.06in /  1017.8hPa Calm     46% 0.01in /  0.25mm meteobridge W/m2
11:28 54.3 °F /  12.4 °C 34.0 °F /  1.1 °C 30.06in /  1017.8hPa Calm     46% 0.01in /  0.25mm meteobridge W/m2
11:33 54.3 °F /  12.4 °C 34.0 °F /  1.1 °C 30.06in /  1017.8hPa Calm     46% 0.01in /  0.25mm meteobridge W/m2
11:39 54.5 °F /  12.5 °C 34.2 °F /  1.2 °C 30.07in /  1018.2hPa Calm     46% 0.01in /  0.25mm meteobridge W/m2
11:44 54.7 °F /  12.6 °C 34.3 °F /  1.3 °C 30.06in /  1017.8hPa Calm     46% 0.00in /  0mm meteobridge W/m2
11:48 54.7 °F /  12.6 °C 34.3 °F /  1.3 °C 30.06in /  1017.8hPa Calm     46% 0.00in /  0mm meteobridge W/m2
11:54 54.7 °F /  12.6 °C 34.3 °F /  1.3 °C 30.06in /  1017.8hPa Calm     46% 0.00in /  0mm meteobridge W/m2
11:59 54.7 °F /  12.6 °C 34.3 °F /  1.3 °C 30.05in /  1017.5hPa Calm     46% 0.00in /  0mm meteobridge W/m2
12:04 54.9 °F /  12.7 °C 34.5 °F /  1.4 °C 30.05in /  1017.5hPa Calm     46% 0.00in /  0mm meteobridge W/m2
12:09 55.0 °F /  12.8 °C 34.7 °F /  1.5 °C 30.05in /  1017.5hPa Calm     46% 0.00in /  0mm meteobridge W/m2
12:12 55.0 °F /  12.8 °C 34.7 °F /  1.5 °C 30.05in /  1017.5hPa Calm     46% 0.00in /  0mm meteobridge W/m2
12:19 55.2 °F /  12.9 °C 34.9 °F /  1.6 °C 30.05in /  1017.5hPa Calm     46% 0.00in /  0mm meteobridge W/m2
12:24 55.0 °F /  12.8 °C 34.7 °F /  1.5 °C 30.05in /  1017.5hPa Calm     46% 0.00in /  0mm meteobridge W/m2
12:29 55.0 °F /  12.8 °C 34.7 °F /  1.5 °C 30.04in /  1017.2hPa Calm     46% 0.00in /  0mm meteobridge W/m2
12:34 55.2 °F /  12.9 °C 34.9 °F /  1.6 °C 30.05in /  1017.5hPa Calm     46% 0.00in /  0mm meteobridge W/m2
12:39 55.2 °F /  12.9 °C 34.9 °F /  1.6 °C 30.05in /  1017.5hPa Calm     46% 0.00in /  0mm meteobridge W/m2
12:43 55.2 °F /  12.9 °C 34.9 °F /  1.6 °C 30.04in /  1017.2hPa Calm     46% 0.00in /  0mm meteobridge W/m2
12:49 55.4 °F /  13 °C 34.3 °F /  1.3 °C 30.04in /  1017.2hPa Calm     45% 0.00in /  0mm meteobridge W/m2
12:54 55.4 °F /  13 °C 34.3 °F /  1.3 °C 30.04in /  1017.2hPa Calm     45% 0.00in /  0mm meteobridge W/m2
12:59 55.6 °F /  13.1 °C 34.5 °F /  1.4 °C 30.04in /  1017.2hPa Calm     45% 0.00in /  0mm meteobridge W/m2
13:04 55.6 °F /  13.1 °C 34.5 °F /  1.4 °C 30.03in /  1016.8hPa Calm     45% 0.00in /  0mm meteobridge W/m2
13:09 55.6 °F /  13.1 °C 34.5 °F /  1.4 °C 30.03in /  1016.8hPa Calm     45% 0.00in /  0mm meteobridge W/m2
13:14 55.6 °F /  13.1 °C 34.5 °F /  1.4 °C 30.03in /  1016.8hPa Calm     45% 0.00in /  0mm meteobridge W/m2
13:19 55.8 °F /  13.2 °C 34.7 °F /  1.5 °C 30.02in /  1016.5hPa Calm     45% 0.00in /  0mm meteobridge W/m2
13:24 55.8 °F /  13.2 °C 34.7 °F /  1.5 °C 30.02in /  1016.5hPa Calm     45% 0.00in /  0mm meteobridge W/m2
13:29 55.8 °F /  13.2 °C 34.7 °F /  1.5 °C 30.02in /  1016.5hPa Calm     45% 0.00in /  0mm meteobridge W/m2
13:34 55.8 °F /  13.2 °C 34.7 °F /  1.5 °C 30.02in /  1016.5hPa Calm     45% 0.00in /  0mm meteobridge W/m2
13:39 55.8 °F /  13.2 °C 34.7 °F /  1.5 °C 30.01in /  1016.1hPa Calm     45% 0.00in /  0mm meteobridge W/m2
13:44 55.8 °F /  13.2 °C 34.7 °F /  1.5 °C 30.02in /  1016.5hPa Calm     45% 0.00in /  0mm meteobridge W/m2
13:48 55.8 °F /  13.2 °C 34.7 °F /  1.5 °C 30.03in /  1016.8hPa Calm     45% 0.00in /  0mm meteobridge W/m2
13:53 55.8 °F /  13.2 °C 34.7 °F /  1.5 °C 30.02in /  1016.5hPa Calm     45% 0.00in /  0mm meteobridge W/m2
13:59 55.6 °F /  13.1 °C 34.5 °F /  1.4 °C 30.02in /  1016.5hPa Calm     45% 0.00in /  0mm meteobridge W/m2
14:04 55.6 °F /  13.1 °C 34.5 °F /  1.4 °C 30.02in /  1016.5hPa Calm     45% 0.00in /  0mm meteobridge W/m2
14:09 55.6 °F /  13.1 °C 34.5 °F /  1.4 °C 30.02in /  1016.5hPa Calm     45% 0.00in /  0mm meteobridge W/m2
14:12 55.8 °F /  13.2 °C 34.7 °F /  1.5 °C 30.03in /  1016.8hPa Calm     45% 0.00in /  0mm meteobridge W/m2
14:17 55.8 °F /  13.2 °C 34.7 °F /  1.5 °C 30.03in /  1016.8hPa Calm     45% 0.00in /  0mm meteobridge W/m2
14:23 55.8 °F /  13.2 °C 34.7 °F /  1.5 °C 30.03in /  1016.8hPa Calm     45% 0.00in /  0mm meteobridge W/m2
14:29 55.9 °F /  13.3 °C 34.9 °F /  1.6 °C 30.03in /  1016.8hPa Calm     45% 0.00in /  0mm meteobridge W/m2
14:34 56.1 °F /  13.4 °C 35.1 °F /  1.7 °C 30.03in /  1016.8hPa Calm     45% 0.00in /  0mm meteobridge W/m2
14:39 56.1 °F /  13.4 °C 35.1 °F /  1.7 °C 30.03in /  1016.8hPa Calm     45% 0.00in /  0mm meteobridge W/m2
14:43 56.1 °F /  13.4 °C 35.1 °F /  1.7 °C 30.03in /  1016.8hPa Calm     45% 0.00in /  0mm meteobridge W/m2
14:48 56.3 °F /  13.5 °C 35.2 °F /  1.8 °C 30.03in /  1016.8hPa Calm     45% 0.01in /  0.25mm meteobridge W/m2
14:54 56.3 °F /  13.5 °C 35.2 °F /  1.8 °C 30.04in /  1017.2hPa Calm     45% 0.01in /  0.25mm meteobridge W/m2
14:59 56.3 °F /  13.5 °C 35.2 °F /  1.8 °C 30.03in /  1016.8hPa Calm     45% 0.01in /  0.25mm meteobridge W/m2
15:04 56.3 °F /  13.5 °C 35.2 °F /  1.8 °C 30.04in /  1017.2hPa Calm     45% 0.01in /  0.25mm meteobridge W/m2
15:09 56.1 °F /  13.4 °C 35.1 °F /  1.7 °C 30.04in /  1017.2hPa Calm     45% 0.01in /  0.25mm meteobridge W/m2
15:13 56.1 °F /  13.4 °C 35.1 °F /  1.7 °C 30.03in /  1016.8hPa Calm     45% 0.01in /  0.25mm meteobridge W/m2
15:19 55.9 °F /  13.3 °C 34.9 °F /  1.6 °C 30.03in /  1016.8hPa Calm     45% 0.01in /  0.25mm meteobridge W/m2
15:24 55.9 °F /  13.3 °C 34.9 °F /  1.6 °C 30.03in /  1016.8hPa Calm     45% 0.01in /  0.25mm meteobridge W/m2
15:29 55.8 °F /  13.2 °C 34.7 °F /  1.5 °C 30.04in /  1017.2hPa Calm     45% 0.01in /  0.25mm meteobridge W/m2
15:34 55.8 °F /  13.2 °C 34.7 °F /  1.5 °C 30.03in /  1016.8hPa Calm     45% 0.01in /  0.25mm meteobridge W/m2
15:39 55.8 °F /  13.2 °C 34.7 °F /  1.5 °C 30.04in /  1017.2hPa Calm     45% 0.01in /  0.25mm meteobridge W/m2
15:44 55.6 °F /  13.1 °C 34.5 °F /  1.4 °C 30.04in /  1017.2hPa Calm     45% 0.01in /  0.25mm meteobridge W/m2
15:49 55.6 °F /  13.1 °C 34.5 °F /  1.4 °C 30.03in /  1016.8hPa Calm     45% 0.00in /  0mm meteobridge W/m2
15:52 55.4 °F /  13 °C 34.3 °F /  1.3 °C 30.03in /  1016.8hPa Calm     45% 0.00in /  0mm meteobridge W/m2
15:58 55.4 °F /  13 °C 34.3 °F /  1.3 °C 30.03in /  1016.8hPa Calm     45% 0.01in /  0.25mm meteobridge W/m2
16:04 55.6 °F /  13.1 °C 34.5 °F /  1.4 °C 30.04in /  1017.2hPa Calm     45% 0.01in /  0.25mm meteobridge W/m2
16:09 55.6 °F /  13.1 °C 34.5 °F /  1.4 °C 30.04in /  1017.2hPa Calm     45% 0.01in /  0.25mm meteobridge W/m2
16:14 55.6 °F /  13.1 °C 34.5 °F /  1.4 °C 30.05in /  1017.5hPa Calm     45% 0.01in /  0.25mm meteobridge W/m2
16:19 55.6 °F /  13.1 °C 34.5 °F /  1.4 °C 30.05in /  1017.5hPa Calm     45% 0.01in /  0.25mm meteobridge W/m2
16:24 55.6 °F /  13.1 °C 34.5 °F /  1.4 °C 30.05in /  1017.5hPa Calm     45% 0.01in /  0.25mm meteobridge W/m2
16:27 55.6 °F /  13.1 °C 34.5 °F /  1.4 °C 30.05in /  1017.5hPa Calm     45% 0.02in /  0.51mm meteobridge W/m2
16:34 55.4 °F /  13 °C 34.3 °F /  1.3 °C 30.06in /  1017.8hPa Calm     45% 0.02in /  0.51mm meteobridge W/m2
16:39 55.0 °F /  12.8 °C 34.2 °F /  1.2 °C 30.06in /  1017.8hPa Calm     45% 0.02in /  0.51mm meteobridge W/m2
16:43 54.5 °F /  12.5 °C 33.6 °F /  0.9 °C 30.06in /  1017.8hPa Calm     45% 0.02in /  0.51mm meteobridge W/m2
16:49 54.1 °F /  12.3 °C 33.8 °F /  1 °C 30.07in /  1018.2hPa Calm     46% 0.02in /  0.51mm meteobridge W/m2
16:54 54.0 °F /  12.2 °C 33.6 °F /  0.9 °C 30.07in /  1018.2hPa Calm     46% 0.02in /  0.51mm meteobridge W/m2
16:59 53.4 °F /  11.9 °C 33.1 °F /  0.6 °C 30.08in /  1018.5hPa Calm     46% 0.01in /  0.25mm meteobridge W/m2
17:04 53.1 °F /  11.7 °C 32.9 °F /  0.5 °C 30.07in /  1018.2hPa Calm     46% 0.02in /  0.51mm meteobridge W/m2
17:09 52.5 °F /  11.4 °C 32.9 °F /  0.5 °C 30.07in /  1018.2hPa Calm     47% 0.02in /  0.51mm meteobridge W/m2
17:13 52.3 °F /  11.3 °C 32.7 °F /  0.4 °C 30.08in /  1018.5hPa Calm     47% 0.02in /  0.51mm meteobridge W/m2
17:19 51.6 °F /  10.9 °C 32.5 °F /  0.3 °C 30.07in /  1018.2hPa Calm     48% 0.02in /  0.51mm meteobridge W/m2
17:23 51.4 °F /  10.8 °C 32.4 °F /  0.2 °C 30.06in /  1017.8hPa Calm     48% 0.02in /  0.51mm meteobridge W/m2
17:28 51.3 °F /  10.7 °C 32.2 °F /  0.1 °C 30.07in /  1018.2hPa Calm     48% 0.01in /  0.25mm meteobridge W/m2
17:34 50.9 °F /  10.5 °C 31.8 °F /  -0.1 °C 30.08in /  1018.5hPa Calm     48% 0.01in /  0.25mm meteobridge W/m2
17:39 50.5 °F /  10.3 °C 31.6 °F /  -0.2 °C 30.08in /  1018.5hPa Calm     48% 0.01in /  0.25mm meteobridge W/m2
17:44 50.4 °F /  10.2 °C 31.5 °F /  -0.3 °C 30.08in /  1018.5hPa Calm     48% 0.01in /  0.25mm meteobridge W/m2
17:49 50.2 °F /  10.1 °C 31.3 °F /  -0.4 °C 30.07in /  1018.2hPa Calm     48% 0.01in /  0.25mm meteobridge W/m2
17:54 50.0 °F /  10 °C 31.1 °F /  -0.5 °C 30.07in /  1018.2hPa Calm     48% 0.01in /  0.25mm meteobridge W/m2
17:57 50.0 °F /  10 °C 31.1 °F /  -0.5 °C 30.08in /  1018.5hPa Calm     48% 0.01in /  0.25mm meteobridge W/m2
18:04 49.8 °F /  9.9 °C 30.9 °F /  -0.6 °C 30.09in /  1018.8hPa Calm     48% 0.01in /  0.25mm meteobridge W/m2
18:09 49.8 °F /  9.9 °C 30.9 °F /  -0.6 °C 30.09in /  1018.8hPa Calm     48% 0.00in /  0mm meteobridge W/m2
18:13 49.8 °F /  9.9 °C 30.9 °F /  -0.6 °C 30.09in /  1018.8hPa Calm     48% 0.00in /  0mm meteobridge W/m2
18:19 49.6 °F /  9.8 °C 30.7 °F /  -0.7 °C 30.09in /  1018.8hPa Calm     48% 0.00in /  0mm meteobridge W/m2
18:24 49.6 °F /  9.8 °C 30.7 °F /  -0.7 °C 30.10in /  1019.2hPa Calm     48% 0.00in /  0mm meteobridge W/m2
18:29 49.6 °F /  9.8 °C 30.7 °F /  -0.7 °C 30.10in /  1019.2hPa Calm     48% 0.00in /  0mm meteobridge W/m2
18:34 49.5 °F /  9.7 °C 30.6 °F /  -0.8 °C 30.10in /  1019.2hPa Calm     48% 0.00in /  0mm meteobridge W/m2
18:39 49.5 °F /  9.7 °C 30.6 °F /  -0.8 °C 30.09in /  1018.8hPa Calm     48% 0.00in /  0mm meteobridge W/m2
18:44 49.5 °F /  9.7 °C 30.6 °F /  -0.8 °C 30.10in /  1019.2hPa Calm     48% 0.00in /  0mm meteobridge W/m2
18:47 49.5 °F /  9.7 °C 30.6 °F /  -0.8 °C 30.10in /  1019.2hPa Calm     48% 0.00in /  0mm meteobridge W/m2
18:54 49.3 °F /  9.6 °C 30.4 °F /  -0.9 °C 30.10in /  1019.2hPa Calm     48% 0.00in /  0mm meteobridge W/m2
18:58 49.1 °F /  9.5 °C 30.7 °F /  -0.7 °C 30.11in /  1019.5hPa Calm     49% 0.00in /  0mm meteobridge W/m2
19:04 48.9 °F /  9.4 °C 30.6 °F /  -0.8 °C 30.10in /  1019.2hPa Calm     49% 0.00in /  0mm meteobridge W/m2
19:09 48.7 °F /  9.3 °C 30.4 °F /  -0.9 °C 30.10in /  1019.2hPa Calm     49% 0.00in /  0mm meteobridge W/m2
19:14 48.6 °F /  9.2 °C 30.2 °F /  -1 °C 30.10in /  1019.2hPa Calm     49% 0.00in /  0mm meteobridge W/m2
19:19 48.4 °F /  9.1 °C 30.0 °F /  -1.1 °C 30.10in /  1019.2hPa Calm     49% 0.00in /  0mm meteobridge W/m2
19:24 48.2 °F /  9 °C 30.0 °F /  -1.1 °C 30.10in /  1019.2hPa Calm     49% 0.00in /  0mm meteobridge W/m2
19:28 48.0 °F /  8.9 °C 29.8 °F /  -1.2 °C 30.11in /  1019.5hPa Calm     49% 0.00in /  0mm meteobridge W/m2
19:32 47.8 °F /  8.8 °C 29.7 °F /  -1.3 °C 30.11in /  1019.5hPa Calm     49% 0.00in /  0mm meteobridge W/m2
19:39 47.7 °F /  8.7 °C 30.0 °F /  -1.1 °C 30.12in /  1019.9hPa Calm     50% 0.00in /  0mm meteobridge W/m2
19:44 47.3 °F /  8.5 °C 29.7 °F /  -1.3 °C 30.12in /  1019.9hPa Calm     50% 0.00in /  0mm meteobridge W/m2
19:49 47.1 °F /  8.4 °C 29.5 °F /  -1.4 °C 30.13in /  1020.2hPa Calm     50% 0.00in /  0mm meteobridge W/m2
19:54 46.9 °F /  8.3 °C 29.3 °F /  -1.5 °C 30.13in /  1020.2hPa Calm     50% 0.00in /  0mm meteobridge W/m2
19:59 46.6 °F /  8.1 °C 29.5 °F /  -1.4 °C 30.13in /  1020.2hPa Calm   3.0mph /  4.8km/h 51% 0.00in /  0mm meteobridge W/m2
20:03 46.4 °F /  8 °C 29.3 °F /  -1.5 °C 30.14in /  1020.5hPa Calm     51% 0.00in /  0mm meteobridge W/m2
20:09 46.0 °F /  7.8 °C 28.9 °F /  -1.7 °C 30.14in /  1020.5hPa Calm   5.0mph /  8km/h 51% 0.00in /  0mm meteobridge W/m2
20:13 46.0 °F /  7.8 °C 28.9 °F /  -1.7 °C 30.14in /  1020.5hPa Calm   1.0mph /  1.6km/h 51% 0.00in /  0mm meteobridge W/m2
20:18 45.9 °F /  7.7 °C 28.8 °F /  -1.8 °C 30.14in /  1020.5hPa WSW 2.9mph /  4.7km/h 4.0mph /  6.4km/h 51% 0.00in /  0mm meteobridge W/m2
20:24 45.7 °F /  7.6 °C 28.6 °F /  -1.9 °C 30.14in /  1020.5hPa Calm   4.0mph /  6.4km/h 51% 0.01in /  0.25mm meteobridge W/m2
20:29 45.5 °F /  7.5 °C 28.9 °F /  -1.7 °C 30.14in /  1020.5hPa Calm   5.0mph /  8km/h 52% 0.01in /  0.25mm meteobridge W/m2
20:33 45.3 °F /  7.4 °C 28.8 °F /  -1.8 °C 30.14in /  1020.5hPa Calm     52% 0.01in /  0.25mm meteobridge W/m2
20:39 45.1 °F /  7.3 °C 28.6 °F /  -1.9 °C 30.14in /  1020.5hPa Calm   3.0mph /  4.8km/h 52% 0.01in /  0.25mm meteobridge W/m2
20:44 45.0 °F /  7.2 °C 28.4 °F /  -2 °C 30.14in /  1020.5hPa Calm   4.0mph /  6.4km/h 52% 0.01in /  0.25mm meteobridge W/m2
20:49 44.6 °F /  7 °C 28.6 °F /  -1.9 °C 30.14in /  1020.5hPa Calm   2.0mph /  3.2km/h 53% 0.01in /  0.25mm meteobridge W/m2
20:54 44.2 °F /  6.8 °C 28.2 °F /  -2.1 °C 30.14in /  1020.5hPa Calm   1.0mph /  1.6km/h 53% 0.01in /  0.25mm meteobridge W/m2
20:59 44.1 °F /  6.7 °C 28.4 °F /  -2 °C 30.15in /  1020.9hPa Calm   6.0mph /  9.7km/h 54% 0.01in /  0.25mm meteobridge W/m2
21:04 43.9 °F /  6.6 °C 28.4 °F /  -2 °C 30.15in /  1020.9hPa Calm   8.0mph /  12.9km/h 54% 0.01in /  0.25mm meteobridge W/m2
21:07 43.7 °F /  6.5 °C 28.2 °F /  -2.1 °C 30.15in /  1020.9hPa Calm   3.0mph /  4.8km/h 54% 0.01in /  0.25mm meteobridge W/m2
21:13 43.5 °F /  6.4 °C 28.4 °F /  -2 °C 30.16in /  1021.2hPa Calm   5.0mph /  8km/h 55% 0.01in /  0.25mm meteobridge W/m2
21:18 43.3 °F /  6.3 °C 28.2 °F /  -2.1 °C 30.16in /  1021.2hPa WNW 0.9mph /  1.4km/h 5.0mph /  8km/h 55% 0.00in /  0mm meteobridge W/m2
21:24 43.2 °F /  6.2 °C 28.0 °F /  -2.2 °C 30.16in /  1021.2hPa Calm   4.0mph /  6.4km/h 55% 0.00in /  0mm meteobridge W/m2
21:29 43.2 °F /  6.2 °C 28.0 °F /  -2.2 °C 30.17in /  1021.6hPa Calm   3.0mph /  4.8km/h 55% 0.00in /  0mm meteobridge W/m2
21:34 43.2 °F /  6.2 °C 28.0 °F /  -2.2 °C 30.17in /  1021.6hPa Calm   3.0mph /  4.8km/h 55% 0.00in /  0mm meteobridge W/m2
21:38 43.2 °F /  6.2 °C 28.0 °F /  -2.2 °C 30.17in /  1021.6hPa Calm   6.0mph /  9.7km/h 55% 0.00in /  0mm meteobridge W/m2
21:41 43.0 °F /  6.1 °C 27.9 °F /  -2.3 °C 30.17in /  1021.6hPa Calm   6.0mph /  9.7km/h 55% 0.00in /  0mm meteobridge W/m2
21:46 43.0 °F /  6.1 °C 27.9 °F /  -2.3 °C 30.17in /  1021.6hPa Calm   6.0mph /  9.7km/h 55% 0.00in /  0mm meteobridge W/m2
21:54 42.6 °F /  5.9 °C 28.0 °F /  -2.2 °C 30.17in /  1021.6hPa NW 2.9mph /  4.7km/h 5.0mph /  8km/h 56% 0.00in /  0mm meteobridge W/m2
21:58 42.6 °F /  5.9 °C 28.0 °F /  -2.2 °C 30.18in /  1021.9hPa NNW 4.9mph /  7.9km/h 5.0mph /  8km/h 56% 0.00in /  0mm meteobridge W/m2
22:04 42.4 °F /  5.8 °C 28.2 °F /  -2.1 °C 30.18in /  1021.9hPa West 4.0mph /  6.4km/h 6.0mph /  9.7km/h 57% 0.00in /  0mm meteobridge W/m2
22:09 42.4 °F /  5.8 °C 28.2 °F /  -2.1 °C 30.18in /  1021.9hPa West 0.9mph /  1.4km/h 4.0mph /  6.4km/h 57% 0.00in /  0mm meteobridge W/m2
22:14 42.3 °F /  5.7 °C 28.6 °F /  -1.9 °C 30.18in /  1021.9hPa Calm   1.0mph /  1.6km/h 58% 0.00in /  0mm meteobridge W/m2
22:19 42.3 °F /  5.7 °C 28.6 °F /  -1.9 °C 30.18in /  1021.9hPa WNW 0.9mph /  1.4km/h 5.0mph /  8km/h 58% 0.00in /  0mm meteobridge W/m2
22:23 42.3 °F /  5.7 °C 28.6 °F /  -1.9 °C 30.18in /  1021.9hPa Calm   3.0mph /  4.8km/h 58% 0.00in /  0mm meteobridge W/m2
22:29 42.1 °F /  5.6 °C 28.8 °F /  -1.8 °C 30.18in /  1021.9hPa Calm   1.0mph /  1.6km/h 59% 0.00in /  0mm meteobridge W/m2
22:34 42.1 °F /  5.6 °C 29.1 °F /  -1.6 °C 30.18in /  1021.9hPa Calm   5.0mph /  8km/h 60% 0.00in /  0mm meteobridge W/m2
22:39 41.7 °F /  5.4 °C 29.7 °F /  -1.3 °C 30.18in /  1021.9hPa Calm   1.0mph /  1.6km/h 62% 0.00in /  0mm meteobridge W/m2
22:44 41.5 °F /  5.3 °C 29.8 °F /  -1.2 °C 30.18in /  1021.9hPa Calm   4.0mph /  6.4km/h 63% 0.00in /  0mm meteobridge W/m2
22:49 41.5 °F /  5.3 °C 29.8 °F /  -1.2 °C 30.18in /  1021.9hPa Calm   4.0mph /  6.4km/h 63% 0.00in /  0mm meteobridge W/m2
22:52 41.5 °F /  5.3 °C 29.8 °F /  -1.2 °C 30.18in /  1021.9hPa WNW 0.9mph /  1.4km/h 1.0mph /  1.6km/h 63% 0.00in /  0mm meteobridge W/m2
22:59 41.4 °F /  5.2 °C 30.0 °F /  -1.1 °C 30.18in /  1021.9hPa Calm     64% 0.00in /  0mm meteobridge W/m2
23:03 41.4 °F /  5.2 °C 30.0 °F /  -1.1 °C 30.18in /  1021.9hPa Calm   1.0mph /  1.6km/h 64% 0.00in /  0mm meteobridge W/m2
23:09 41.4 °F /  5.2 °C 29.7 °F /  -1.3 °C 30.18in /  1021.9hPa Calm     63% 0.00in /  0mm meteobridge W/m2
23:14 41.4 °F /  5.2 °C 29.7 °F /  -1.3 °C 30.19in /  1022.2hPa WNW 0.9mph /  1.4km/h 1.0mph /  1.6km/h 63% 0.00in /  0mm meteobridge W/m2
23:19 41.4 °F /  5.2 °C 29.7 °F /  -1.3 °C 30.18in /  1021.9hPa Calm   1.0mph /  1.6km/h 63% 0.00in /  0mm meteobridge W/m2
23:24 41.4 °F /  5.2 °C 29.7 °F /  -1.3 °C 30.19in /  1022.2hPa Calm   2.0mph /  3.2km/h 63% 0.00in /  0mm meteobridge W/m2
23:29 41.4 °F /  5.2 °C 29.7 °F /  -1.3 °C 30.19in /  1022.2hPa Calm     63% 0.00in /  0mm meteobridge W/m2
23:34 41.2 °F /  5.1 °C 29.5 °F /  -1.4 °C 30.18in /  1021.9hPa Calm   1.0mph /  1.6km/h 63% 0.00in /  0mm meteobridge W/m2
23:39 41.2 °F /  5.1 °C 29.1 °F /  -1.6 °C 30.18in /  1021.9hPa Calm     62% 0.00in /  0mm meteobridge W/m2
23:44 41.2 °F /  5.1 °C 29.1 °F /  -1.6 °C 30.19in /  1022.2hPa Calm     62% 0.00in /  0mm meteobridge W/m2
23:49 41.2 °F /  5.1 °C 29.1 °F /  -1.6 °C 30.19in /  1022.2hPa Calm     62% 0.00in /  0mm meteobridge W/m2
23:54 41.2 °F /  5.1 °C 29.5 °F /  -1.4 °C 30.19in /  1022.2hPa Calm   2.0mph /  3.2km/h 63% 0.00in /  0mm meteobridge W/m2
23:59 40.8 °F /  4.9 °C 29.1 °F /  -1.6 °C 30.19in /  1022.2hPa Calm     63% 0.00in /  0mm meteobridge W/m2
Juneau County Weather
Compliments of Weather Underground - 2.5 mb